Terminal Aerodrome Forecast
Issued by NWS Wakefield, VA

Home | Current Version | Previous Version | Text Only | Print | Product List | Glossary On
Versions: 1 2 3 4 5 6 7 8 9 10 11 12 13 14 15 16 17 18 19 20 21
000
FTUS41 KAKQ 031139
TAFSBY
TAF
KSBY 031139Z 0312/0412 VRB03KT 5SM BR SKC
      TEMPO 0312/0313 3SM BR
     FM031300 33005KT P6SM FEW050
     FM040000 VRB02KT P6SM SKC=

USA.gov is the U.S. government's official web portal to all federal, state and local government web resources and services.